sensor_id;sensor_type;location;lat;lon;timestamp;temperature;humidity
18712;DHT22;9485;49.386;8.674;2022-12-07T00:00:19;7.10;94.30
18712;DHT22;9485;49.386;8.674;2022-12-07T00:05:40;7.00;94.50
18712;DHT22;9485;49.386;8.674;2022-12-07T00:11:03;6.90;94.60
18712;DHT22;9485;49.386;8.674;2022-12-07T00:16:26;6.90;94.90
18712;DHT22;9485;49.386;8.674;2022-12-07T00:21:49;6.90;95.10
18712;DHT22;9485;49.386;8.674;2022-12-07T00:27:10;7.00;95.30
18712;DHT22;9485;49.386;8.674;2022-12-07T00:32:31;7.00;95.50
18712;DHT22;9485;49.386;8.674;2022-12-07T00:37:52;7.10;95.60
18712;DHT22;9485;49.386;8.674;2022-12-07T00:43:13;7.20;95.70
18712;DHT22;9485;49.386;8.674;2022-12-07T00:48:34;7.20;95.50
18712;DHT22;9485;49.386;8.674;2022-12-07T00:53:55;7.20;95.50
18712;DHT22;9485;49.386;8.674;2022-12-07T00:59:17;7.20;95.60
18712;DHT22;9485;49.386;8.674;2022-12-07T01:04:38;7.20;95.90
18712;DHT22;9485;49.386;8.674;2022-12-07T01:09:58;7.30;95.70
18712;DHT22;9485;49.386;8.674;2022-12-07T01:15:20;7.30;95.70
18712;DHT22;9485;49.386;8.674;2022-12-07T01:20:40;7.40;95.70
18712;DHT22;9485;49.386;8.674;2022-12-07T01:26:04;7.40;95.80
18712;DHT22;9485;49.386;8.674;2022-12-07T01:31:27;7.50;95.80
18712;DHT22;9485;49.386;8.674;2022-12-07T01:36:49;7.50;95.70
18712;DHT22;9485;49.386;8.674;2022-12-07T01:42:10;7.60;95.70
18712;DHT22;9485;49.386;8.674;2022-12-07T01:47:32;7.60;95.70
18712;DHT22;9485;49.386;8.674;2022-12-07T01:52:55;7.60;95.70
18712;DHT22;9485;49.386;8.674;2022-12-07T01:58:17;7.60;95.50
18712;DHT22;9485;49.386;8.674;2022-12-07T02:03:41;7.60;95.50
18712;DHT22;9485;49.386;8.674;2022-12-07T02:09:03;7.60;95.50
18712;DHT22;9485;49.386;8.674;2022-12-07T02:14:24;7.60;95.50
18712;DHT22;9485;49.386;8.674;2022-12-07T02:20:11;7.60;95.50
18712;DHT22;9485;49.386;8.674;2022-12-07T02:25:58;7.60;95.30
18712;DHT22;9485;49.386;8.674;2022-12-07T02:31:31;7.60;95.30
18712;DHT22;9485;49.386;8.674;2022-12-07T02:36:55;7.60;95.40
18712;DHT22;9485;49.386;8.674;2022-12-07T02:42:25;7.60;95.30
18712;DHT22;9485;49.386;8.674;2022-12-07T02:47:56;7.50;95.30
18712;DHT22;9485;49.386;8.674;2022-12-07T02:53:33;7.50;95.20
18712;DHT22;9485;49.386;8.674;2022-12-07T02:59:02;7.40;94.90
18712;DHT22;9485;49.386;8.674;2022-12-07T03:04:44;7.40;95.50
18712;DHT22;9485;49.386;8.674;2022-12-07T03:10:14;7.40;95.10
18712;DHT22;9485;49.386;8.674;2022-12-07T03:15:43;7.40;95.20
18712;DHT22;9485;49.386;8.674;2022-12-07T03:21:14;7.30;95.20
18712;DHT22;9485;49.386;8.674;2022-12-07T03:26:41;7.40;95.30
18712;DHT22;9485;49.386;8.674;2022-12-07T03:32:10;7.40;95.40
18712;DHT22;9485;49.386;8.674;2022-12-07T03:37:40;7.30;95.30
18712;DHT22;9485;49.386;8.674;2022-12-07T03:43:06;7.30;95.30
18712;DHT22;9485;49.386;8.674;2022-12-07T03:48:33;7.30;95.30
18712;DHT22;9485;49.386;8.674;2022-12-07T03:54:02;7.30;95.30
18712;DHT22;9485;49.386;8.674;2022-12-07T03:59:30;7.30;95.30
18712;DHT22;9485;49.386;8.674;2022-12-07T04:04:51;7.30;95.30
18712;DHT22;9485;49.386;8.674;2022-12-07T04:10:14;7.30;95.30
18712;DHT22;9485;49.386;8.674;2022-12-07T04:15:34;7.30;95.30
18712;DHT22;9485;49.386;8.674;2022-12-07T04:20:55;7.20;95.30
18712;DHT22;9485;49.386;8.674;2022-12-07T04:26:17;7.20;95.30
18712;DHT22;9485;49.386;8.674;2022-12-07T04:31:38;7.20;95.40
18712;DHT22;9485;49.386;8.674;2022-12-07T04:36:58;7.20;95.40
18712;DHT22;9485;49.386;8.674;2022-12-07T04:42:20;7.20;95.70
18712;DHT22;9485;49.386;8.674;2022-12-07T04:47:41;7.30;95.30
18712;DHT22;9485;49.386;8.674;2022-12-07T04:53:01;7.20;95.40
18712;DHT22;9485;49.386;8.674;2022-12-07T04:58:23;7.30;95.40
18712;DHT22;9485;49.386;8.674;2022-12-07T05:03:44;7.20;95.40
18712;DHT22;9485;49.386;8.674;2022-12-07T05:09:05;7.20;95.40
18712;DHT22;9485;49.386;8.674;2022-12-07T05:14:27;7.20;95.40
18712;DHT22;9485;49.386;8.674;2022-12-07T05:19:47;7.30;95.50
18712;DHT22;9485;49.386;8.674;2022-12-07T05:25:08;7.30;95.60
18712;DHT22;9485;49.386;8.674;2022-12-07T05:30:31;7.40;95.70
18712;DHT22;9485;49.386;8.674;2022-12-07T05:35:53;7.40;95.60
18712;DHT22;9485;49.386;8.674;2022-12-07T05:41:15;7.40;95.40
18712;DHT22;9485;49.386;8.674;2022-12-07T05:46:57;7.30;95.30
18712;DHT22;9485;49.386;8.674;2022-12-07T05:52:18;7.30;95.30
18712;DHT22;9485;49.386;8.674;2022-12-07T05:57:38;7.20;95.30
18712;DHT22;9485;49.386;8.674;2022-12-07T06:03:00;7.20;95.30
18712;DHT22;9485;49.386;8.674;2022-12-07T06:08:21;7.20;95.30
18712;DHT22;9485;49.386;8.674;2022-12-07T06:13:41;7.20;95.30
18712;DHT22;9485;49.386;8.674;2022-12-07T06:19:03;7.20;95.40
18712;DHT22;9485;49.386;8.674;2022-12-07T06:24:24;7.20;95.50
18712;DHT22;9485;49.386;8.674;2022-12-07T06:29:45;7.20;95.60
18712;DHT22;9485;49.386;8.674;2022-12-07T06:35:07;7.30;95.70
18712;DHT22;9485;49.386;8.674;2022-12-07T06:40:28;7.30;95.60
18712;DHT22;9485;49.386;8.674;2022-12-07T06:45:49;7.30;95.40
18712;DHT22;9485;49.386;8.674;2022-12-07T06:51:11;7.30;95.30
18712;DHT22;9485;49.386;8.674;2022-12-07T06:56:32;7.30;95.30
18712;DHT22;9485;49.386;8.674;2022-12-07T07:01:52;7.30;95.30
18712;DHT22;9485;49.386;8.674;2022-12-07T07:07:14;7.30;95.30
18712;DHT22;9485;49.386;8.674;2022-12-07T07:12:34;7.20;95.20
18712;DHT22;9485;49.386;8.674;2022-12-07T07:17:55;7.20;95.20
18712;DHT22;9485;49.386;8.674;2022-12-07T07:23:17;7.10;95.30
18712;DHT22;9485;49.386;8.674;2022-12-07T07:28:38;7.10;95.40
18712;DHT22;9485;49.386;8.674;2022-12-07T07:33:58;7.20;95.50
18712;DHT22;9485;49.386;8.674;2022-12-07T07:39:20;7.20;95.40
18712;DHT22;9485;49.386;8.674;2022-12-07T07:44:41;7.20;95.50
18712;DHT22;9485;49.386;8.674;2022-12-07T07:50:01;7.30;95.50
18712;DHT22;9485;49.386;8.674;2022-12-07T07:55:24;7.30;95.50
18712;DHT22;9485;49.386;8.674;2022-12-07T08:00:44;7.30;95.50
18712;DHT22;9485;49.386;8.674;2022-12-07T08:06:05;7.30;95.50
18712;DHT22;9485;49.386;8.674;2022-12-07T08:11:27;7.40;95.50
18712;DHT22;9485;49.386;8.674;2022-12-07T08:16:48;7.40;95.40
18712;DHT22;9485;49.386;8.674;2022-12-07T08:22:09;7.40;95.40
18712;DHT22;9485;49.386;8.674;2022-12-07T08:27:30;7.50;95.40
18712;DHT22;9485;49.386;8.674;2022-12-07T08:32:51;7.50;95.30
18712;DHT22;9485;49.386;8.674;2022-12-07T08:38:12;7.50;95.20
18712;DHT22;9485;49.386;8.674;2022-12-07T08:43:35;7.50;95.30
18712;DHT22;9485;49.386;8.674;2022-12-07T08:49:00;7.50;95.30
18712;DHT22;9485;49.386;8.674;2022-12-07T08:54:23;7.60;95.20
18712;DHT22;9485;49.386;8.674;2022-12-07T08:59:46;7.50;95.10
18712;DHT22;9485;49.386;8.674;2022-12-07T09:05:32;7.50;95.00
18712;DHT22;9485;49.386;8.674;2022-12-07T09:10:53;7.40;95.10
18712;DHT22;9485;49.386;8.674;2022-12-07T09:16:15;7.40;95.20
18712;DHT22;9485;49.386;8.674;2022-12-07T09:21:36;7.30;95.30
18712;DHT22;9485;49.386;8.674;2022-12-07T09:26:56;7.30;95.30
18712;DHT22;9485;49.386;8.674;2022-12-07T09:32:19;7.40;95.40
18712;DHT22;9485;49.386;8.674;2022-12-07T09:37:39;7.40;95.40
18712;DHT22;9485;49.386;8.674;2022-12-07T09:43:00;7.40;95.50
18712;DHT22;9485;49.386;8.674;2022-12-07T09:48:26;7.40;95.60
18712;DHT22;9485;49.386;8.674;2022-12-07T09:53:50;7.50;95.70
18712;DHT22;9485;49.386;8.674;2022-12-07T09:59:16;7.50;95.60
18712;DHT22;9485;49.386;8.674;2022-12-07T10:04:39;7.60;95.60
18712;DHT22;9485;49.386;8.674;2022-12-07T10:10:03;7.60;95.60
18712;DHT22;9485;49.386;8.674;2022-12-07T10:15:42;7.60;95.50
18712;DHT22;9485;49.386;8.674;2022-12-07T10:21:16;7.70;95.50
18712;DHT22;9485;49.386;8.674;2022-12-07T10:26:48;7.70;95.50
18712;DHT22;9485;49.386;8.674;2022-12-07T10:32:29;7.70;95.40
18712;DHT22;9485;49.386;8.674;2022-12-07T10:37:56;7.80;95.40
18712;DHT22;9485;49.386;8.674;2022-12-07T10:43:18;7.90;95.70
18712;DHT22;9485;49.386;8.674;2022-12-07T10:48:43;8.00;95.80
18712;DHT22;9485;49.386;8.674;2022-12-07T10:54:18;8.10;95.80
18712;DHT22;9485;49.386;8.674;2022-12-07T11:00:02;8.20;95.60
18712;DHT22;9485;49.386;8.674;2022-12-07T11:05:35;8.20;95.20
18712;DHT22;9485;49.386;8.674;2022-12-07T11:11:10;8.20;95.30
18712;DHT22;9485;49.386;8.674;2022-12-07T11:16:52;8.30;95.40
18712;DHT22;9485;49.386;8.674;2022-12-07T11:22:22;8.40;95.30
18712;DHT22;9485;49.386;8.674;2022-12-07T11:28:00;8.40;95.40
18712;DHT22;9485;49.386;8.674;2022-12-07T11:33:31;8.40;95.30
18712;DHT22;9485;49.386;8.674;2022-12-07T11:39:01;8.50;95.20
18712;DHT22;9485;49.386;8.674;2022-12-07T11:44:32;8.50;95.20
18712;DHT22;9485;49.386;8.674;2022-12-07T11:50:05;8.50;95.20
18712;DHT22;9485;49.386;8.674;2022-12-07T11:55:42;8.60;95.30
18712;DHT22;9485;49.386;8.674;2022-12-07T12:01:18;8.60;95.30
18712;DHT22;9485;49.386;8.674;2022-12-07T12:06:46;8.70;95.10
18712;DHT22;9485;49.386;8.674;2022-12-07T12:12:25;8.70;95.20
18712;DHT22;9485;49.386;8.674;2022-12-07T12:18:12;8.70;94.90
18712;DHT22;9485;49.386;8.674;2022-12-07T12:23:49;8.70;94.90
18712;DHT22;9485;49.386;8.674;2022-12-07T12:29:21;8.70;95.10
18712;DHT22;9485;49.386;8.674;2022-12-07T12:40:46;8.80;95.00
18712;DHT22;9485;49.386;8.674;2022-12-07T12:58:36;9.10;95.20
18712;DHT22;9485;49.386;8.674;2022-12-07T13:03:58;9.30;95.30
18712;DHT22;9485;49.386;8.674;2022-12-07T13:09:23;9.40;95.60
18712;DHT22;9485;49.386;8.674;2022-12-07T13:14:56;9.50;95.40
18712;DHT22;9485;49.386;8.674;2022-12-07T13:20:52;9.60;95.30
18712;DHT22;9485;49.386;8.674;2022-12-07T13:26:19;9.70;95.00
18712;DHT22;9485;49.386;8.674;2022-12-07T13:31:44;9.70;95.00
18712;DHT22;9485;49.386;8.674;2022-12-07T13:37:12;9.70;95.00
18712;DHT22;9485;49.386;8.674;2022-12-07T13:42:39;9.80;94.60
18712;DHT22;9485;49.386;8.674;2022-12-07T13:48:00;9.80;94.60
18712;DHT22;9485;49.386;8.674;2022-12-07T13:53:22;9.70;94.60
18712;DHT22;9485;49.386;8.674;2022-12-07T13:58:45;9.70;94.50
18712;DHT22;9485;49.386;8.674;2022-12-07T14:04:28;9.70;94.40
18712;DHT22;9485;49.386;8.674;2022-12-07T14:09:55;9.70;94.10
18712;DHT22;9485;49.386;8.674;2022-12-07T14:15:22;9.70;94.30
18712;DHT22;9485;49.386;8.674;2022-12-07T14:20:45;9.70;94.40
18712;DHT22;9485;49.386;8.674;2022-12-07T14:26:08;9.60;94.30
18712;DHT22;9485;49.386;8.674;2022-12-07T14:31:34;9.60;94.30
18712;DHT22;9485;49.386;8.674;2022-12-07T14:36:54;9.50;94.20
18712;DHT22;9485;49.386;8.674;2022-12-07T14:42:15;9.50;94.30
18712;DHT22;9485;49.386;8.674;2022-12-07T14:47:37;9.40;94.30
18712;DHT22;9485;49.386;8.674;2022-12-07T14:53:00;9.40;94.20
18712;DHT22;9485;49.386;8.674;2022-12-07T14:58:26;9.40;94.30
18712;DHT22;9485;49.386;8.674;2022-12-07T15:03:48;9.30;94.30
18712;DHT22;9485;49.386;8.674;2022-12-07T15:09:09;9.30;94.20
18712;DHT22;9485;49.386;8.674;2022-12-07T15:14:30;9.30;94.30
18712;DHT22;9485;49.386;8.674;2022-12-07T15:19:52;9.20;94.30
18712;DHT22;9485;49.386;8.674;2022-12-07T15:25:13;9.20;94.30
18712;DHT22;9485;49.386;8.674;2022-12-07T15:30:36;9.10;94.20
18712;DHT22;9485;49.386;8.674;2022-12-07T15:35:59;9.10;94.40
18712;DHT22;9485;49.386;8.674;2022-12-07T15:41:20;9.10;94.40
18712;DHT22;9485;49.386;8.674;2022-12-07T15:46:42;9.10;94.60
18712;DHT22;9485;49.386;8.674;2022-12-07T15:52:04;9.00;94.50
18712;DHT22;9485;49.386;8.674;2022-12-07T15:57:25;9.00;94.40
18712;DHT22;9485;49.386;8.674;2022-12-07T16:02:45;9.00;94.50
18712;DHT22;9485;49.386;8.674;2022-12-07T16:08:07;8.90;94.40
18712;DHT22;9485;49.386;8.674;2022-12-07T16:13:27;8.90;94.50
18712;DHT22;9485;49.386;8.674;2022-12-07T16:18:49;8.90;94.30
18712;DHT22;9485;49.386;8.674;2022-12-07T16:24:11;8.90;94.20
18712;DHT22;9485;49.386;8.674;2022-12-07T16:29:34;8.80;93.90
18712;DHT22;9485;49.386;8.674;2022-12-07T16:34:54;8.70;94.00
18712;DHT22;9485;49.386;8.674;2022-12-07T16:40:16;8.70;94.10
18712;DHT22;9485;49.386;8.674;2022-12-07T16:45:37;8.70;94.20
18712;DHT22;9485;49.386;8.674;2022-12-07T16:50:57;8.70;94.20
18712;DHT22;9485;49.386;8.674;2022-12-07T16:56:24;8.60;94.20
18712;DHT22;9485;49.386;8.674;2022-12-07T17:01:45;8.60;93.90
18712;DHT22;9485;49.386;8.674;2022-12-07T17:07:06;8.60;93.90
18712;DHT22;9485;49.386;8.674;2022-12-07T17:12:28;8.50;94.00
18712;DHT22;9485;49.386;8.674;2022-12-07T17:17:52;8.50;94.00
18712;DHT22;9485;49.386;8.674;2022-12-07T17:23:14;8.50;93.70
18712;DHT22;9485;49.386;8.674;2022-12-07T17:28:36;8.50;93.60
18712;DHT22;9485;49.386;8.674;2022-12-07T17:33:57;8.40;94.00
18712;DHT22;9485;49.386;8.674;2022-12-07T17:39:18;8.40;94.10
18712;DHT22;9485;49.386;8.674;2022-12-07T17:44:40;8.50;93.60
18712;DHT22;9485;49.386;8.674;2022-12-07T17:50:01;8.30;93.70
18712;DHT22;9485;49.386;8.674;2022-12-07T17:55:22;8.30;93.90
18712;DHT22;9485;49.386;8.674;2022-12-07T18:00:45;8.30;94.00
18712;DHT22;9485;49.386;8.674;2022-12-07T18:06:06;8.30;94.10
18712;DHT22;9485;49.386;8.674;2022-12-07T18:11:26;8.30;94.20
18712;DHT22;9485;49.386;8.674;2022-12-07T18:16:48;8.30;94.10
18712;DHT22;9485;49.386;8.674;2022-12-07T18:22:09;8.30;94.00
18712;DHT22;9485;49.386;8.674;2022-12-07T18:27:29;8.30;94.00
18712;DHT22;9485;49.386;8.674;2022-12-07T18:32:51;8.20;94.10
18712;DHT22;9485;49.386;8.674;2022-12-07T18:38:12;8.20;94.00
18712;DHT22;9485;49.386;8.674;2022-12-07T18:43:33;8.20;94.10
18712;DHT22;9485;49.386;8.674;2022-12-07T18:48:55;8.20;94.20
18712;DHT22;9485;49.386;8.674;2022-12-07T18:54:16;8.20;94.10
18712;DHT22;9485;49.386;8.674;2022-12-07T18:59:38;8.20;94.10
18712;DHT22;9485;49.386;8.674;2022-12-07T19:05:10;8.10;93.90
18712;DHT22;9485;49.386;8.674;2022-12-07T19:10:30;8.10;93.90
18712;DHT22;9485;49.386;8.674;2022-12-07T19:15:51;8.00;93.90
18712;DHT22;9485;49.386;8.674;2022-12-07T19:21:12;8.00;94.00
18712;DHT22;9485;49.386;8.674;2022-12-07T19:26:33;8.00;93.90
18712;DHT22;9485;49.386;8.674;2022-12-07T19:31:54;8.00;93.80
18712;DHT22;9485;49.386;8.674;2022-12-07T19:37:16;7.90;93.90
18712;DHT22;9485;49.386;8.674;2022-12-07T19:42:36;7.90;93.90
18712;DHT22;9485;49.386;8.674;2022-12-07T19:47:57;7.90;93.90
18712;DHT22;9485;49.386;8.674;2022-12-07T19:53:19;7.90;93.90
18712;DHT22;9485;49.386;8.674;2022-12-07T19:58:41;7.90;93.90
18712;DHT22;9485;49.386;8.674;2022-12-07T20:04:03;7.80;93.70
18712;DHT22;9485;49.386;8.674;2022-12-07T20:09:27;7.80;93.70
18712;DHT22;9485;49.386;8.674;2022-12-07T20:14:48;7.70;93.60
18712;DHT22;9485;49.386;8.674;2022-12-07T20:20:09;7.70;93.70
18712;DHT22;9485;49.386;8.674;2022-12-07T20:25:34;7.70;93.70
18712;DHT22;9485;49.386;8.674;2022-12-07T20:30:54;7.60;93.60
18712;DHT22;9485;49.386;8.674;2022-12-07T20:36:17;7.60;93.60
18712;DHT22;9485;49.386;8.674;2022-12-07T20:41:39;7.60;93.60
18712;DHT22;9485;49.386;8.674;2022-12-07T20:47:18;7.60;93.90
18712;DHT22;9485;49.386;8.674;2022-12-07T20:52:39;7.60;93.80
18712;DHT22;9485;49.386;8.674;2022-12-07T20:58:01;7.50;93.60
18712;DHT22;9485;49.386;8.674;2022-12-07T21:03:21;7.50;93.70
18712;DHT22;9485;49.386;8.674;2022-12-07T21:08:43;7.50;93.90
18712;DHT22;9485;49.386;8.674;2022-12-07T21:14:06;7.50;94.00
18712;DHT22;9485;49.386;8.674;2022-12-07T21:19:28;7.50;93.90
18712;DHT22;9485;49.386;8.674;2022-12-07T21:24:49;7.50;94.10
18712;DHT22;9485;49.386;8.674;2022-12-07T21:30:11;7.50;94.10
18712;DHT22;9485;49.386;8.674;2022-12-07T21:35:32;7.60;94.10
18712;DHT22;9485;49.386;8.674;2022-12-07T21:40:53;7.60;94.10
18712;DHT22;9485;49.386;8.674;2022-12-07T21:46:16;7.50;94.00
18712;DHT22;9485;49.386;8.674;2022-12-07T21:51:38;7.50;94.10
18712;DHT22;9485;49.386;8.674;2022-12-07T21:56:59;7.60;94.00
18712;DHT22;9485;49.386;8.674;2022-12-07T22:02:21;7.50;93.80
18712;DHT22;9485;49.386;8.674;2022-12-07T22:07:42;7.50;94.00
18712;DHT22;9485;49.386;8.674;2022-12-07T22:13:02;7.50;94.10
18712;DHT22;9485;49.386;8.674;2022-12-07T22:18:24;7.40;94.10
18712;DHT22;9485;49.386;8.674;2022-12-07T22:23:45;7.40;94.10
18712;DHT22;9485;49.386;8.674;2022-12-07T22:29:06;7.40;94.10
18712;DHT22;9485;49.386;8.674;2022-12-07T22:34:28;7.40;94.00
18712;DHT22;9485;49.386;8.674;2022-12-07T22:39:49;7.40;94.00
18712;DHT22;9485;49.386;8.674;2022-12-07T22:45:09;7.40;94.00
18712;DHT22;9485;49.386;8.674;2022-12-07T22:50:34;7.40;94.00
18712;DHT22;9485;49.386;8.674;2022-12-07T22:55:56;7.40;93.80
18712;DHT22;9485;49.386;8.674;2022-12-07T23:01:18;7.30;93.90
18712;DHT22;9485;49.386;8.674;2022-12-07T23:06:41;7.30;93.90
18712;DHT22;9485;49.386;8.674;2022-12-07T23:12:01;7.30;93.80
18712;DHT22;9485;49.386;8.674;2022-12-07T23:17:40;7.20;93.70
18712;DHT22;9485;49.386;8.674;2022-12-07T23:23:01;7.20;93.90
18712;DHT22;9485;49.386;8.674;2022-12-07T23:28:22;7.20;93.80
18712;DHT22;9485;49.386;8.674;2022-12-07T23:33:43;7.10;93.80
18712;DHT22;9485;49.386;8.674;2022-12-07T23:39:07;7.10;93.80
18712;DHT22;9485;49.386;8.674;2022-12-07T23:44:28;7.10;94.20
18712;DHT22;9485;49.386;8.674;2022-12-07T23:49:48;7.00;93.80
18712;DHT22;9485;49.386;8.674;2022-12-07T23:55:10;6.90;93.60
